createdAt,value
2019-03-05T00:01:43.736Z,5.40
2019-03-05T00:04:09.829Z,5.40
2019-03-05T00:06:36.073Z,5.40
2019-03-05T00:09:06.117Z,5.40
2019-03-05T00:11:32.256Z,5.30
2019-03-05T00:13:58.447Z,5.30
2019-03-05T00:16:24.573Z,5.20
2019-03-05T00:18:50.663Z,5.20
2019-03-05T00:21:16.820Z,5.20
2019-03-05T00:23:46.237Z,5.20
2019-03-05T00:26:12.543Z,5.20
2019-03-05T00:28:51.642Z,5.20
2019-03-05T00:31:27.101Z,5.20
2019-03-05T00:34:13.474Z,5.10
2019-03-05T00:36:43.459Z,5.10
2019-03-05T00:39:22.576Z,5.00
2019-03-05T00:42:10.054Z,5.10
2019-03-05T00:45:03.129Z,4.90
2019-03-05T00:47:38.129Z,5.00
2019-03-05T00:50:29.378Z,4.90
2019-03-05T00:53:17.860Z,4.70
2019-03-05T00:56:02.995Z,4.90
2019-03-05T00:58:41.766Z,4.90
2019-03-05T01:01:14.455Z,5.00
2019-03-05T01:04:08.579Z,5.00
2019-03-05T01:06:35.294Z,5.00
2019-03-05T01:09:01.377Z,5.00
2019-03-05T01:11:27.971Z,4.90
2019-03-05T01:13:54.318Z,5.00
2019-03-05T01:16:31.906Z,5.10
2019-03-05T01:18:58.230Z,5.00
2019-03-05T01:21:24.410Z,4.90
2019-03-05T01:23:50.506Z,5.00
2019-03-05T01:26:16.748Z,5.10
2019-03-05T01:28:42.877Z,5.20
2019-03-05T01:31:11.850Z,5.10
2019-03-05T01:33:52.052Z,5.10
2019-03-05T01:36:20.152Z,5.10
2019-03-05T01:38:51.061Z,5.10
2019-03-05T01:41:17.292Z,5.10
2019-03-05T01:43:43.528Z,5.00
2019-03-05T01:46:09.734Z,4.90
2019-03-05T01:48:35.826Z,4.90
2019-03-05T01:51:02.245Z,4.80
2019-03-05T01:53:28.377Z,4.90
2019-03-05T01:55:54.612Z,4.80
2019-03-05T01:58:20.828Z,4.80
2019-03-05T02:00:46.948Z,4.80
2019-03-05T02:03:13.351Z,4.90
2019-03-05T02:05:39.546Z,4.80
2019-03-05T02:08:05.737Z,4.90
2019-03-05T02:10:31.914Z,5.00
2019-03-05T02:12:58.206Z,4.80
2019-03-05T02:15:24.633Z,4.90
2019-03-05T02:17:50.789Z,4.90
2019-03-05T02:20:19.604Z,4.90
2019-03-05T02:22:49.194Z,4.90
2019-03-05T02:25:24.932Z,5.00
2019-03-05T02:28:15.443Z,4.90
2019-03-05T02:31:03.159Z,4.90
2019-03-05T02:33:36.266Z,4.90
2019-03-05T02:36:06.179Z,5.00
2019-03-05T02:38:55.922Z,4.90
2019-03-05T02:41:28.841Z,5.00
2019-03-05T02:43:58.836Z,5.00
2019-03-05T02:46:41.141Z,5.00
2019-03-05T02:49:20.270Z,5.00
2019-03-05T02:52:02.442Z,5.00
2019-03-05T02:54:52.408Z,5.00
2019-03-05T02:57:18.401Z,4.90
2019-03-05T02:59:44.528Z,5.00
2019-03-05T03:02:24.479Z,5.00
2019-03-05T03:04:52.593Z,5.10
2019-03-05T03:07:18.880Z,5.00
2019-03-05T03:09:51.857Z,5.00
2019-03-05T03:12:18.081Z,5.00
2019-03-05T03:14:44.249Z,5.00
2019-03-05T03:17:10.391Z,5.00
2019-03-05T03:19:36.665Z,5.10
2019-03-05T03:22:02.761Z,5.10
2019-03-05T03:24:28.893Z,5.10
2019-03-05T03:26:55.072Z,5.10
2019-03-05T03:29:21.189Z,5.10
2019-03-05T03:31:47.663Z,5.10
2019-03-05T03:34:14.001Z,5.10
2019-03-05T03:36:40.235Z,5.10
2019-03-05T03:39:06.402Z,5.10
2019-03-05T03:41:32.713Z,5.10
2019-03-05T03:43:58.953Z,5.20
2019-03-05T03:46:25.141Z,5.20
2019-03-05T03:48:51.271Z,5.20
2019-03-05T03:51:17.367Z,5.10
2019-03-05T03:53:43.492Z,5.20
2019-03-05T03:56:09.913Z,5.20
2019-03-05T03:58:36.121Z,5.10
2019-03-05T04:01:06.643Z,5.10
2019-03-05T04:03:31.353Z,5.10
2019-03-05T04:05:57.627Z,5.00
2019-03-05T04:08:24.065Z,5.10
2019-03-05T04:10:50.187Z,5.10
2019-03-05T04:13:16.412Z,5.10
2019-03-05T04:15:42.634Z,5.10
2019-03-05T04:18:08.721Z,5.10
2019-03-05T04:20:36.739Z,5.10
2019-03-05T04:23:02.974Z,5.00
2019-03-05T04:25:29.167Z,5.00
2019-03-05T04:27:55.281Z,5.00
2019-03-05T04:30:21.433Z,5.00
2019-03-05T04:32:47.602Z,5.00
2019-03-05T04:35:13.727Z,5.10
2019-03-05T04:37:39.958Z,5.00
2019-03-05T04:40:10.138Z,5.10
2019-03-05T04:42:36.473Z,5.10
2019-03-05T04:45:07.731Z,5.10
2019-03-05T04:47:33.895Z,5.10
2019-03-05T04:50:07.706Z,5.10
2019-03-05T04:52:33.791Z,5.10
2019-03-05T04:54:59.879Z,5.20
2019-03-05T04:57:25.962Z,5.20
2019-03-05T04:59:52.031Z,5.20
2019-03-05T05:02:18.125Z,5.10
2019-03-05T05:04:44.249Z,5.10
2019-03-05T05:07:10.595Z,5.10
2019-03-05T05:09:37.884Z,5.00
2019-03-05T05:12:04.425Z,4.90
2019-03-05T05:14:30.547Z,4.80
2019-03-05T05:16:56.866Z,4.80
2019-03-05T05:19:23.008Z,4.80
2019-03-05T05:21:49.218Z,4.70
2019-03-05T05:24:15.367Z,4.70
2019-03-05T05:26:41.995Z,4.70
2019-03-05T05:29:08.155Z,4.70
2019-03-05T05:31:34.278Z,4.70
2019-03-05T05:34:00.407Z,4.70
2019-03-05T05:36:26.596Z,4.70
2019-03-05T05:38:52.725Z,4.70
2019-03-05T05:41:18.898Z,4.70
2019-03-05T05:43:45.012Z,4.70
2019-03-05T05:46:11.115Z,4.80
2019-03-05T05:48:37.263Z,4.80
2019-03-05T05:51:03.539Z,4.80
2019-03-05T05:53:29.676Z,4.70
2019-03-05T05:55:55.918Z,4.60
2019-03-05T05:58:22.000Z,4.50
2019-03-05T06:00:50.047Z,4.50
2019-03-05T06:03:16.202Z,4.50
2019-03-05T06:05:42.906Z,4.40
2019-03-05T06:08:09.035Z,4.40
2019-03-05T06:10:35.468Z,4.20
2019-03-05T06:13:01.638Z,4.30
2019-03-05T06:15:27.782Z,4.20
2019-03-05T06:17:53.896Z,4.20
2019-03-05T06:20:20.262Z,4.20
2019-03-05T06:22:46.556Z,4.10
2019-03-05T06:25:13.553Z,4.10
2019-03-05T06:27:39.619Z,4.20
2019-03-05T06:30:09.468Z,4.10
2019-03-05T06:32:35.642Z,4.20
2019-03-05T06:35:01.861Z,4.20
2019-03-05T06:37:28.002Z,4.10
2019-03-05T06:39:54.190Z,4.00
2019-03-05T06:42:20.298Z,4.10
2019-03-05T06:44:46.374Z,4.20
2019-03-05T06:47:12.470Z,4.20
2019-03-05T06:49:38.600Z,4.20
2019-03-05T06:52:04.791Z,4.30
2019-03-05T06:54:31.034Z,4.40
2019-03-05T06:56:57.256Z,4.30
2019-03-05T06:59:23.314Z,4.40
2019-03-05T07:01:49.521Z,4.40
2019-03-05T07:04:15.633Z,4.40
2019-03-05T07:06:50.642Z,4.40
2019-03-05T07:09:26.222Z,4.40
2019-03-05T07:11:56.118Z,4.40
2019-03-05T07:14:28.814Z,4.50
2019-03-05T07:17:04.838Z,4.40
2019-03-05T07:19:34.833Z,4.40
2019-03-05T07:22:16.765Z,4.50
2019-03-05T07:24:46.863Z,4.60
2019-03-05T07:27:19.838Z,4.60
2019-03-05T07:29:45.914Z,4.60
2019-03-05T07:32:12.138Z,4.70
2019-03-05T07:34:40.472Z,4.60
2019-03-05T07:37:08.816Z,4.80
2019-03-05T07:39:34.924Z,4.80
2019-03-05T07:42:01.136Z,4.80
2019-03-05T07:44:27.290Z,4.90
2019-03-05T07:46:53.536Z,5.00
2019-03-05T07:49:19.730Z,5.10
2019-03-05T07:51:45.866Z,5.20
2019-03-05T07:54:12.107Z,5.30
2019-03-05T07:56:38.287Z,5.30
2019-03-05T07:59:04.361Z,5.30
2019-03-05T08:01:30.634Z,5.30
2019-03-05T08:03:56.761Z,5.40
2019-03-05T08:06:22.939Z,5.40
2019-03-05T08:09:24.846Z,5.30
2019-03-05T08:11:54.865Z,5.40
2019-03-05T08:14:47.775Z,5.50
2019-03-05T08:17:13.905Z,5.60
2019-03-05T08:19:40.130Z,5.70
2019-03-05T08:22:08.843Z,5.80
2019-03-05T08:24:35.223Z,5.80
2019-03-05T08:27:01.503Z,5.90
2019-03-05T08:29:27.627Z,6.00
2019-03-05T08:31:53.827Z,6.00
2019-03-05T08:34:19.960Z,6.10
2019-03-05T08:36:46.195Z,6.20
2019-03-05T08:39:12.416Z,6.20
2019-03-05T08:41:38.627Z,6.30
2019-03-05T08:44:04.883Z,6.20
2019-03-05T08:46:31.126Z,6.20
2019-03-05T08:48:57.321Z,6.20
2019-03-05T08:51:23.415Z,6.10
2019-03-05T08:53:50.071Z,6.10
2019-03-05T08:56:16.319Z,6.10
2019-03-05T08:58:42.482Z,6.00
2019-03-05T09:01:08.763Z,6.00
2019-03-05T09:03:34.897Z,6.00
2019-03-05T09:06:01.129Z,6.00
2019-03-05T09:08:27.315Z,6.10
2019-03-05T09:10:54.032Z,6.20
2019-03-05T09:13:20.244Z,6.20
2019-03-05T09:15:46.333Z,6.30
2019-03-05T09:18:12.489Z,6.40
2019-03-05T09:20:38.854Z,6.40
2019-03-05T09:23:05.011Z,6.40
2019-03-05T09:25:31.246Z,6.40
2019-03-05T09:27:57.423Z,6.40
2019-03-05T09:30:23.788Z,6.40
2019-03-05T09:32:49.949Z,6.40
2019-03-05T09:35:16.563Z,6.60
2019-03-05T09:37:43.395Z,6.50
2019-03-05T09:40:15.039Z,6.60
2019-03-05T09:42:41.491Z,6.60
2019-03-05T09:45:15.648Z,6.70
2019-03-05T09:47:43.861Z,6.80
2019-03-05T09:50:12.693Z,6.90
2019-03-05T09:52:38.817Z,7.00
2019-03-05T09:55:08.554Z,7.10
2019-03-05T09:57:34.867Z,7.20
2019-03-05T10:00:01.035Z,7.30
2019-03-05T10:02:27.283Z,7.30
2019-03-05T10:04:53.357Z,7.30
2019-03-05T10:07:19.542Z,7.30
2019-03-05T10:09:45.843Z,7.50
2019-03-05T10:12:12.137Z,7.40
2019-03-05T10:14:38.213Z,7.50
2019-03-05T10:17:04.443Z,7.40
2019-03-05T10:19:30.568Z,7.40
2019-03-05T10:21:56.774Z,7.40
2019-03-05T10:24:22.859Z,7.50
2019-03-05T10:26:49.388Z,7.40
2019-03-05T10:29:15.495Z,7.50
2019-03-05T10:31:41.761Z,7.60
2019-03-05T10:34:07.967Z,7.60
2019-03-05T10:36:34.046Z,7.70
2019-03-05T10:39:00.265Z,7.80
2019-03-05T10:41:27.145Z,7.80
2019-03-05T10:43:53.267Z,7.70
2019-03-05T10:46:19.358Z,7.80
2019-03-05T10:48:45.570Z,7.90
2019-03-05T10:51:11.693Z,7.80
2019-03-05T10:53:37.923Z,7.90
2019-03-05T10:56:05.134Z,8.00
2019-03-05T10:58:34.243Z,8.20
2019-03-05T11:00:59.826Z,8.30
2019-03-05T11:03:28.250Z,8.30
2019-03-05T11:05:54.546Z,8.20
2019-03-05T11:08:23.044Z,8.10
2019-03-05T11:10:49.656Z,8.20
2019-03-05T11:13:15.790Z,8.10
2019-03-05T11:15:42.439Z,8.10
2019-03-05T11:18:09.668Z,8.10
2019-03-05T11:20:36.936Z,8.10
2019-03-05T11:23:04.601Z,8.10
2019-03-05T11:25:30.849Z,8.00
2019-03-05T11:27:57.024Z,8.10
2019-03-05T11:30:35.764Z,8.10
2019-03-05T11:32:55.567Z,8.10
2019-03-05T11:35:30.114Z,8.20
2019-03-05T11:37:56.521Z,8.10
2019-03-05T11:40:23.104Z,8.10
2019-03-05T11:42:49.426Z,8.10
2019-03-05T11:45:24.172Z,8.20
2019-03-05T11:47:50.666Z,8.10
2019-03-05T11:50:16.988Z,8.10
2019-03-05T11:52:43.834Z,8.20
2019-03-05T11:55:13.160Z,8.30
2019-03-05T11:57:39.303Z,8.40
2019-03-05T12:00:09.281Z,8.50
2019-03-05T12:02:35.384Z,8.30
2019-03-05T12:05:01.832Z,8.20
2019-03-05T12:07:28.020Z,8.20
2019-03-05T12:09:54.214Z,8.20
2019-03-05T12:12:20.436Z,8.10
2019-03-05T12:14:46.553Z,8.00
2019-03-05T12:17:12.717Z,8.10
2019-03-05T12:19:39.002Z,8.10
2019-03-05T12:22:05.328Z,8.00
2019-03-05T12:24:31.518Z,7.90
2019-03-05T12:26:57.792Z,7.70
2019-03-05T12:29:23.939Z,7.70
2019-03-05T12:31:50.128Z,7.60
2019-03-05T12:34:16.222Z,7.50
2019-03-05T12:36:42.304Z,7.50
2019-03-05T12:39:10.409Z,7.50
2019-03-05T12:41:36.621Z,7.40
2019-03-05T12:44:05.304Z,7.20
2019-03-05T12:46:31.061Z,7.10
2019-03-05T12:48:57.276Z,7.00
2019-03-05T12:51:23.573Z,7.00
2019-03-05T12:53:49.773Z,7.00
2019-03-05T12:56:23.560Z,6.90
2019-03-05T12:58:43.970Z,6.90
2019-03-05T13:01:10.475Z,7.00
2019-03-05T13:03:36.671Z,7.10
2019-03-05T13:06:03.174Z,7.10
2019-03-05T13:08:29.327Z,7.10
2019-03-05T13:10:55.656Z,7.10
2019-03-05T13:13:21.953Z,7.10
2019-03-05T13:15:48.051Z,7.10
2019-03-05T13:18:14.472Z,7.10
2019-03-05T13:20:40.699Z,7.20
2019-03-05T13:23:09.443Z,7.30
2019-03-05T13:25:35.039Z,7.40
2019-03-05T13:28:02.411Z,7.30
2019-03-05T13:30:32.011Z,7.30
2019-03-05T13:32:59.053Z,7.20
2019-03-05T13:35:30.267Z,7.10
2019-03-05T13:38:03.430Z,7.00
2019-03-05T13:40:30.266Z,6.80
2019-03-05T13:42:58.024Z,6.60
2019-03-05T13:45:25.167Z,6.60
2019-03-05T13:48:14.722Z,6.60
2019-03-05T13:50:52.579Z,6.40
2019-03-05T13:53:39.439Z,6.30
2019-03-05T13:56:32.454Z,6.10
2019-03-05T13:59:31.040Z,6.20
2019-03-05T14:01:57.219Z,6.20
2019-03-05T14:04:30.189Z,6.30
2019-03-05T14:07:12.093Z,6.30
2019-03-05T14:09:38.035Z,6.20
2019-03-05T14:12:04.313Z,6.20
2019-03-05T14:14:30.787Z,6.20
2019-03-05T14:16:59.030Z,6.30
2019-03-05T14:19:25.363Z,6.20
2019-03-05T14:21:51.570Z,6.30
2019-03-05T14:24:17.690Z,6.20
2019-03-05T14:26:43.987Z,6.20
2019-03-05T14:29:10.379Z,6.20
2019-03-05T14:31:36.467Z,6.10
2019-03-05T14:34:02.913Z,6.00
2019-03-05T14:36:29.339Z,6.20
2019-03-05T14:38:55.979Z,6.20
2019-03-05T14:41:24.884Z,6.10
2019-03-05T14:43:50.332Z,6.00
2019-03-05T14:46:16.524Z,6.10
2019-03-05T14:48:42.831Z,6.00
2019-03-05T14:51:09.164Z,6.00
2019-03-05T14:53:35.601Z,6.00
2019-03-05T14:56:01.883Z,6.10
2019-03-05T14:58:28.040Z,6.00
2019-03-05T15:00:54.654Z,6.10
2019-03-05T15:03:20.942Z,6.10
2019-03-05T15:05:47.381Z,6.00
2019-03-05T15:08:13.542Z,6.00
2019-03-05T15:10:39.781Z,6.00
2019-03-05T15:13:15.418Z,6.10
2019-03-05T15:15:34.144Z,6.10
2019-03-05T15:18:00.498Z,6.10
2019-03-05T15:20:26.687Z,6.20
2019-03-05T15:22:52.986Z,6.20
2019-03-05T15:25:19.359Z,6.20
2019-03-05T15:27:45.658Z,6.30
2019-03-05T15:30:17.830Z,6.40
2019-03-05T15:32:44.130Z,6.30
2019-03-05T15:35:10.841Z,6.30
2019-03-05T15:37:37.366Z,6.40
2019-03-05T15:40:09.556Z,6.40
2019-03-05T15:42:35.683Z,6.30
2019-03-05T15:45:02.711Z,6.20
2019-03-05T15:47:29.072Z,6.30
2019-03-05T15:49:55.255Z,6.20
2019-03-05T15:52:21.521Z,6.20
2019-03-05T15:54:47.820Z,6.20
2019-03-05T15:57:14.022Z,6.30
2019-03-05T15:59:40.408Z,6.30
2019-03-05T16:02:06.886Z,6.20
2019-03-05T16:04:36.016Z,6.10
2019-03-05T16:07:00.979Z,6.10
2019-03-05T16:09:27.132Z,6.10
2019-03-05T16:11:53.326Z,6.10
2019-03-05T16:14:19.565Z,6.00
2019-03-05T16:16:45.822Z,6.00
2019-03-05T16:19:12.433Z,6.00
2019-03-05T16:21:41.288Z,6.20
2019-03-05T16:24:08.477Z,6.30
2019-03-05T16:26:34.687Z,6.30
2019-03-05T16:29:01.204Z,6.30
2019-03-05T16:31:45.395Z,6.30
2019-03-05T16:34:13.130Z,6.30
2019-03-05T16:36:53.598Z,6.30
2019-03-05T16:39:37.166Z,6.20
2019-03-05T16:42:14.616Z,6.30
2019-03-05T16:44:57.770Z,6.30
2019-03-05T16:47:38.065Z,6.40
2019-03-05T16:50:26.267Z,6.30
2019-03-05T16:53:06.371Z,6.40
2019-03-05T16:55:34.596Z,6.40
2019-03-05T16:58:02.627Z,6.40
2019-03-05T17:00:49.162Z,6.40
2019-03-05T17:03:26.592Z,6.50
2019-03-05T17:06:00.794Z,6.50
2019-03-05T17:08:28.840Z,6.50
2019-03-05T17:10:57.177Z,6.50
2019-03-05T17:13:23.878Z,6.40
2019-03-05T17:15:50.034Z,6.40
2019-03-05T17:18:16.139Z,6.30
2019-03-05T17:20:42.223Z,6.30
2019-03-05T17:23:08.805Z,6.20
2019-03-05T17:25:35.189Z,6.30
2019-03-05T17:28:01.477Z,6.30
2019-03-05T17:30:27.725Z,6.40
2019-03-05T17:32:53.961Z,6.40
2019-03-05T17:35:20.521Z,6.40
2019-03-05T17:37:46.842Z,6.40
2019-03-05T17:40:13.855Z,6.50
2019-03-05T17:42:40.077Z,6.40
2019-03-05T17:45:10.081Z,6.30
2019-03-05T17:47:36.191Z,6.30
2019-03-05T17:50:03.521Z,6.20
2019-03-05T17:52:29.802Z,6.20
2019-03-05T17:54:55.951Z,6.20
2019-03-05T17:57:22.147Z,6.20
2019-03-05T17:59:48.387Z,6.20
2019-03-05T18:02:14.709Z,6.20
2019-03-05T18:04:41.207Z,6.20
2019-03-05T18:07:07.526Z,6.20
2019-03-05T18:09:33.743Z,6.20
2019-03-05T18:11:59.948Z,6.20
2019-03-05T18:14:26.161Z,6.20
2019-03-05T18:16:52.429Z,6.10
2019-03-05T18:19:18.695Z,6.10
2019-03-05T18:21:44.892Z,6.00
2019-03-05T18:24:11.147Z,6.00
2019-03-05T18:26:37.484Z,5.90
2019-03-05T18:29:03.809Z,5.90
2019-03-05T18:31:30.039Z,5.90
2019-03-05T18:33:56.119Z,5.80
2019-03-05T18:36:23.180Z,5.70
2019-03-05T18:38:49.265Z,5.70
2019-03-05T18:41:15.389Z,5.70
2019-03-05T18:43:41.565Z,5.70
2019-03-05T18:46:07.885Z,5.60
2019-03-05T18:48:34.135Z,5.50
2019-03-05T18:51:00.401Z,5.60
2019-03-05T18:53:26.541Z,5.60
2019-03-05T18:55:52.753Z,5.50
2019-03-05T18:58:18.901Z,5.40
2019-03-05T19:00:45.237Z,5.40
2019-03-05T19:03:13.596Z,5.30
2019-03-05T19:05:40.043Z,5.30
2019-03-05T19:08:06.431Z,5.30
2019-03-05T19:10:32.665Z,5.30
2019-03-05T19:12:58.959Z,5.30
2019-03-05T19:15:26.485Z,5.20
2019-03-05T19:17:52.815Z,5.20
2019-03-05T19:20:27.642Z,5.20
2019-03-05T19:22:54.039Z,5.20
2019-03-05T19:25:32.712Z,5.10
2019-03-05T19:27:58.860Z,5.10
2019-03-05T19:30:33.845Z,5.00
2019-03-05T19:33:00.169Z,5.10
2019-03-05T19:35:26.381Z,5.00
2019-03-05T19:37:52.492Z,4.90
2019-03-05T19:40:24.540Z,4.90
2019-03-05T19:42:50.709Z,5.00
2019-03-05T19:45:17.052Z,4.90
2019-03-05T19:47:43.389Z,4.90
2019-03-05T19:50:17.781Z,4.80
2019-03-05T19:52:44.323Z,4.80
2019-03-05T19:55:13.511Z,4.80
2019-03-05T19:57:39.618Z,4.70
2019-03-05T20:00:16.091Z,4.70
2019-03-05T20:02:42.296Z,4.60
2019-03-05T20:05:10.137Z,4.60
2019-03-05T20:07:36.572Z,4.50
2019-03-05T20:10:06.576Z,4.40
2019-03-05T20:12:32.842Z,4.30
2019-03-05T20:14:59.200Z,4.40
2019-03-05T20:17:25.392Z,4.30
2019-03-05T20:19:51.538Z,4.30
2019-03-05T20:22:17.726Z,4.30
2019-03-05T20:24:43.824Z,4.20
2019-03-05T20:27:16.063Z,4.10
2019-03-05T20:29:37.979Z,4.20
2019-03-05T20:32:04.065Z,4.10
2019-03-05T20:34:30.312Z,4.10
2019-03-05T20:36:56.693Z,4.10
2019-03-05T20:39:22.813Z,4.10
2019-03-05T20:41:48.932Z,4.10
2019-03-05T20:44:15.173Z,4.10
2019-03-05T20:46:41.676Z,4.00
2019-03-05T20:49:07.770Z,4.00
2019-03-05T20:51:33.960Z,3.90
2019-03-05T20:54:00.188Z,3.90
2019-03-05T20:56:26.422Z,3.80
2019-03-05T20:58:54.563Z,3.80
2019-03-05T21:01:20.783Z,3.80
2019-03-05T21:03:46.963Z,3.70
2019-03-05T21:06:13.206Z,3.70
2019-03-05T21:08:39.446Z,3.70
2019-03-05T21:11:05.752Z,3.70
2019-03-05T21:13:32.062Z,3.60
2019-03-05T21:15:58.301Z,3.60
2019-03-05T21:18:24.497Z,3.70
2019-03-05T21:20:50.685Z,3.60
2019-03-05T21:23:17.158Z,3.60
2019-03-05T21:25:43.388Z,3.60
2019-03-05T21:28:09.581Z,3.70
2019-03-05T21:30:36.091Z,3.60
2019-03-05T21:33:02.503Z,3.50
2019-03-05T21:35:28.592Z,3.50
2019-03-05T21:37:55.058Z,3.50
2019-03-05T21:40:22.891Z,3.30
2019-03-05T21:42:49.301Z,3.20
2019-03-05T21:45:35.741Z,3.20
2019-03-05T21:48:02.843Z,3.10
2019-03-05T21:50:29.194Z,3.00
2019-03-05T21:52:55.393Z,3.00
2019-03-05T21:55:21.628Z,3.00
2019-03-05T21:57:47.821Z,3.00
2019-03-05T22:00:23.260Z,2.90
2019-03-05T22:02:49.367Z,2.90
2019-03-05T22:05:15.763Z,2.90
2019-03-05T22:07:41.846Z,2.90
2019-03-05T22:10:11.444Z,2.80
2019-03-05T22:12:37.687Z,2.80
2019-03-05T22:15:07.853Z,2.90
2019-03-05T22:17:34.037Z,2.80
2019-03-05T22:20:00.330Z,2.80
2019-03-05T22:22:26.619Z,2.80
2019-03-05T22:24:52.714Z,2.70
2019-03-05T22:27:18.941Z,2.80
2019-03-05T22:29:45.330Z,2.90
2019-03-05T22:32:11.474Z,2.70
2019-03-05T22:34:37.705Z,2.60
2019-03-05T22:37:03.902Z,2.60
2019-03-05T22:39:30.045Z,2.50
2019-03-05T22:41:56.246Z,2.50
2019-03-05T22:44:22.843Z,2.50
2019-03-05T22:46:48.993Z,2.50
2019-03-05T22:49:15.095Z,2.50
2019-03-05T22:51:41.229Z,2.40
2019-03-05T22:54:07.450Z,2.40
2019-03-05T22:56:33.581Z,2.50
2019-03-05T22:59:00.112Z,2.50
2019-03-05T23:01:30.549Z,2.40
2019-03-05T23:03:56.856Z,2.30
2019-03-05T23:06:23.031Z,2.30
2019-03-05T23:08:49.287Z,2.30
2019-03-05T23:11:15.812Z,2.30
2019-03-05T23:13:42.819Z,2.50
2019-03-05T23:16:09.245Z,2.50
2019-03-05T23:18:35.342Z,2.30
2019-03-05T23:21:01.648Z,2.30
2019-03-05T23:23:28.194Z,2.30
2019-03-05T23:25:54.562Z,2.30
2019-03-05T23:28:20.964Z,2.30
2019-03-05T23:30:47.509Z,2.50
2019-03-05T23:33:13.728Z,2.40
2019-03-05T23:35:40.099Z,2.50
2019-03-05T23:38:06.509Z,2.50
2019-03-05T23:40:32.904Z,2.50
2019-03-05T23:42:59.123Z,2.50
2019-03-05T23:45:25.473Z,2.50
2019-03-05T23:47:51.645Z,2.50
2019-03-05T23:50:18.138Z,2.50
2019-03-05T23:52:44.440Z,2.50
2019-03-05T23:55:11.654Z,2.60
2019-03-05T23:57:38.013Z,2.60
